sensor_id;sensor_type;location;lat;lon;timestamp;P1;durP1;ratioP1;P2;durP2;ratioP2
15913;SDS011;8055;51.930;8.840;2023-08-01T00:01:27;0.82;;;0.60;;
15913;SDS011;8055;51.930;8.840;2023-08-01T00:03:54;2.28;;;0.75;;
15913;SDS011;8055;51.930;8.840;2023-08-01T00:06:19;0.63;;;0.60;;
15913;SDS011;8055;51.930;8.840;2023-08-01T00:08:45;0.57;;;0.57;;
15913;SDS011;8055;51.930;8.840;2023-08-01T00:11:10;1.95;;;0.75;;
15913;SDS011;8055;51.930;8.840;2023-08-01T00:13:36;0.45;;;0.45;;
15913;SDS011;8055;51.930;8.840;2023-08-01T00:16:02;3.70;;;0.60;;
15913;SDS011;8055;51.930;8.840;2023-08-01T00:18:27;0.60;;;0.60;;
15913;SDS011;8055;51.930;8.840;2023-08-01T00:20:53;0.70;;;0.70;;
15913;SDS011;8055;51.930;8.840;2023-08-01T00:23:18;0.60;;;0.60;;
15913;SDS011;8055;51.930;8.840;2023-08-01T00:25:44;0.55;;;0.50;;
15913;SDS011;8055;51.930;8.840;2023-08-01T00:28:09;1.02;;;0.60;;
15913;SDS011;8055;51.930;8.840;2023-08-01T00:30:35;0.60;;;0.60;;
15913;SDS011;8055;51.930;8.840;2023-08-01T00:33:00;0.50;;;0.50;;
15913;SDS011;8055;51.930;8.840;2023-08-01T00:35:26;0.93;;;0.90;;
15913;SDS011;8055;51.930;8.840;2023-08-01T00:37:51;1.15;;;0.70;;
15913;SDS011;8055;51.930;8.840;2023-08-01T00:40:16;1.65;;;0.60;;
15913;SDS011;8055;51.930;8.840;2023-08-01T00:42:42;1.00;;;0.80;;
15913;SDS011;8055;51.930;8.840;2023-08-01T00:45:08;0.60;;;0.60;;
15913;SDS011;8055;51.930;8.840;2023-08-01T00:47:34;1.00;;;0.80;;
15913;SDS011;8055;51.930;8.840;2023-08-01T00:50:00;1.08;;;0.80;;
15913;SDS011;8055;51.930;8.840;2023-08-01T00:52:26;0.70;;;0.70;;
15913;SDS011;8055;51.930;8.840;2023-08-01T00:54:52;0.85;;;0.60;;
15913;SDS011;8055;51.930;8.840;2023-08-01T00:57:17;0.77;;;0.75;;
15913;SDS011;8055;51.930;8.840;2023-08-01T00:59:43;0.80;;;0.70;;
15913;SDS011;8055;51.930;8.840;2023-08-01T01:02:08;0.70;;;0.60;;
15913;SDS011;8055;51.930;8.840;2023-08-01T01:04:33;1.58;;;0.80;;
15913;SDS011;8055;51.930;8.840;2023-08-01T01:07:02;0.70;;;0.70;;
15913;SDS011;8055;51.930;8.840;2023-08-01T01:09:31;0.43;;;0.43;;
15913;SDS011;8055;51.930;8.840;2023-08-01T01:11:59;0.80;;;0.60;;
15913;SDS011;8055;51.930;8.840;2023-08-01T01:14:27;2.53;;;0.77;;
15913;SDS011;8055;51.930;8.840;2023-08-01T01:16:53;0.80;;;0.70;;
15913;SDS011;8055;51.930;8.840;2023-08-01T01:19:19;1.38;;;0.70;;
15913;SDS011;8055;51.930;8.840;2023-08-01T01:21:45;2.38;;;0.80;;
15913;SDS011;8055;51.930;8.840;2023-08-01T01:24:12;0.88;;;0.65;;
15913;SDS011;8055;51.930;8.840;2023-08-01T01:26:40;2.17;;;0.80;;
15913;SDS011;8055;51.930;8.840;2023-08-01T01:29:06;1.85;;;0.77;;
15913;SDS011;8055;51.930;8.840;2023-08-01T01:31:33;1.40;;;0.50;;
15913;SDS011;8055;51.930;8.840;2023-08-01T01:34:01;0.52;;;0.50;;
15913;SDS011;8055;51.930;8.840;2023-08-01T01:36:27;0.90;;;0.73;;
15913;SDS011;8055;51.930;8.840;2023-08-01T01:38:52;0.85;;;0.70;;
15913;SDS011;8055;51.930;8.840;2023-08-01T01:41:17;0.88;;;0.60;;
15913;SDS011;8055;51.930;8.840;2023-08-01T01:43:43;2.05;;;0.70;;
15913;SDS011;8055;51.930;8.840;2023-08-01T01:46:09;1.20;;;0.85;;
15913;SDS011;8055;51.930;8.840;2023-08-01T01:48:35;1.13;;;0.70;;
15913;SDS011;8055;51.930;8.840;2023-08-01T01:51:00;0.70;;;0.65;;
15913;SDS011;8055;51.930;8.840;2023-08-01T01:53:25;0.70;;;0.63;;
15913;SDS011;8055;51.930;8.840;2023-08-01T01:55:51;1.17;;;0.93;;
15913;SDS011;8055;51.930;8.840;2023-08-01T01:58:16;1.52;;;0.90;;
15913;SDS011;8055;51.930;8.840;2023-08-01T02:00:41;2.33;;;0.90;;
15913;SDS011;8055;51.930;8.840;2023-08-01T02:03:07;2.03;;;0.80;;
15913;SDS011;8055;51.930;8.840;2023-08-01T02:05:35;1.23;;;0.82;;
15913;SDS011;8055;51.930;8.840;2023-08-01T02:08:04;1.08;;;0.93;;
15913;SDS011;8055;51.930;8.840;2023-08-01T02:10:30;2.35;;;0.95;;
15913;SDS011;8055;51.930;8.840;2023-08-01T02:12:55;1.25;;;0.80;;
15913;SDS011;8055;51.930;8.840;2023-08-01T02:15:21;1.10;;;1.00;;
15913;SDS011;8055;51.930;8.840;2023-08-01T02:17:46;1.05;;;0.95;;
15913;SDS011;8055;51.930;8.840;2023-08-01T02:20:12;1.20;;;1.00;;
15913;SDS011;8055;51.930;8.840;2023-08-01T02:22:37;1.00;;;0.90;;
15913;SDS011;8055;51.930;8.840;2023-08-01T02:25:02;2.88;;;1.15;;
15913;SDS011;8055;51.930;8.840;2023-08-01T02:27:28;1.63;;;1.15;;
15913;SDS011;8055;51.930;8.840;2023-08-01T02:29:53;3.78;;;1.10;;
15913;SDS011;8055;51.930;8.840;2023-08-01T02:32:19;3.58;;;1.08;;
15913;SDS011;8055;51.930;8.840;2023-08-01T02:34:44;0.85;;;0.85;;
15913;SDS011;8055;51.930;8.840;2023-08-01T02:37:10;1.75;;;1.00;;
15913;SDS011;8055;51.930;8.840;2023-08-01T02:39:35;1.20;;;0.93;;
15913;SDS011;8055;51.930;8.840;2023-08-01T02:42:00;1.40;;;1.05;;
15913;SDS011;8055;51.930;8.840;2023-08-01T02:44:26;2.92;;;1.30;;
15913;SDS011;8055;51.930;8.840;2023-08-01T02:46:51;1.02;;;0.93;;
15913;SDS011;8055;51.930;8.840;2023-08-01T02:49:17;2.30;;;0.90;;
15913;SDS011;8055;51.930;8.840;2023-08-01T02:51:42;1.00;;;0.85;;
15913;SDS011;8055;51.930;8.840;2023-08-01T02:54:07;0.85;;;0.85;;
15913;SDS011;8055;51.930;8.840;2023-08-01T02:56:33;2.03;;;0.98;;
15913;SDS011;8055;51.930;8.840;2023-08-01T02:58:58;1.92;;;1.10;;
15913;SDS011;8055;51.930;8.840;2023-08-01T03:01:24;1.08;;;0.82;;
15913;SDS011;8055;51.930;8.840;2023-08-01T03:03:49;0.80;;;0.73;;
15913;SDS011;8055;51.930;8.840;2023-08-01T03:06:15;3.03;;;0.70;;
15913;SDS011;8055;51.930;8.840;2023-08-01T03:08:40;0.98;;;0.63;;
15913;SDS011;8055;51.930;8.840;2023-08-01T03:11:06;0.90;;;0.60;;
15913;SDS011;8055;51.930;8.840;2023-08-01T03:13:31;0.65;;;0.65;;
15913;SDS011;8055;51.930;8.840;2023-08-01T03:15:57;0.77;;;0.60;;
15913;SDS011;8055;51.930;8.840;2023-08-01T03:18:22;1.15;;;0.60;;
15913;SDS011;8055;51.930;8.840;2023-08-01T03:20:47;1.27;;;0.68;;
15913;SDS011;8055;51.930;8.840;2023-08-01T03:23:13;1.50;;;0.60;;
15913;SDS011;8055;51.930;8.840;2023-08-01T03:25:38;0.60;;;0.60;;
15913;SDS011;8055;51.930;8.840;2023-08-01T03:28:04;1.48;;;0.77;;
15913;SDS011;8055;51.930;8.840;2023-08-01T03:30:30;1.00;;;0.70;;
15913;SDS011;8055;51.930;8.840;2023-08-01T03:32:57;1.17;;;0.93;;
15913;SDS011;8055;51.930;8.840;2023-08-01T03:35:22;0.80;;;0.80;;
15913;SDS011;8055;51.930;8.840;2023-08-01T03:37:48;0.88;;;0.80;;
15913;SDS011;8055;51.930;8.840;2023-08-01T03:40:14;3.13;;;0.93;;
15913;SDS011;8055;51.930;8.840;2023-08-01T03:42:40;1.83;;;0.93;;
15913;SDS011;8055;51.930;8.840;2023-08-01T03:45:06;1.10;;;1.00;;
15913;SDS011;8055;51.930;8.840;2023-08-01T03:47:32;1.20;;;1.00;;
15913;SDS011;8055;51.930;8.840;2023-08-01T03:49:57;1.67;;;0.90;;
15913;SDS011;8055;51.930;8.840;2023-08-01T03:52:23;3.80;;;1.02;;
15913;SDS011;8055;51.930;8.840;2023-08-01T03:54:49;1.70;;;1.10;;
15913;SDS011;8055;51.930;8.840;2023-08-01T03:57:14;1.60;;;1.30;;
15913;SDS011;8055;51.930;8.840;2023-08-01T03:59:40;1.20;;;1.10;;
15913;SDS011;8055;51.930;8.840;2023-08-01T04:02:05;1.13;;;1.02;;
15913;SDS011;8055;51.930;8.840;2023-08-01T04:04:30;1.67;;;0.90;;
15913;SDS011;8055;51.930;8.840;2023-08-01T04:06:56;1.30;;;1.20;;
15913;SDS011;8055;51.930;8.840;2023-08-01T04:09:22;1.20;;;1.10;;
15913;SDS011;8055;51.930;8.840;2023-08-01T04:11:47;1.20;;;1.10;;
15913;SDS011;8055;51.930;8.840;2023-08-01T04:14:12;1.50;;;1.20;;
15913;SDS011;8055;51.930;8.840;2023-08-01T04:16:39;1.20;;;1.10;;
15913;SDS011;8055;51.930;8.840;2023-08-01T04:19:04;1.92;;;1.20;;
15913;SDS011;8055;51.930;8.840;2023-08-01T04:21:30;1.80;;;1.00;;
15913;SDS011;8055;51.930;8.840;2023-08-01T04:23:55;1.50;;;1.10;;
15913;SDS011;8055;51.930;8.840;2023-08-01T04:26:20;1.45;;;1.20;;
15913;SDS011;8055;51.930;8.840;2023-08-01T04:28:46;1.17;;;1.05;;
15913;SDS011;8055;51.930;8.840;2023-08-01T04:31:13;1.45;;;1.13;;
15913;SDS011;8055;51.930;8.840;2023-08-01T04:33:38;1.40;;;1.20;;
15913;SDS011;8055;51.930;8.840;2023-08-01T04:36:04;1.73;;;1.40;;
15913;SDS011;8055;51.930;8.840;2023-08-01T04:38:29;1.95;;;1.83;;
15913;SDS011;8055;51.930;8.840;2023-08-01T04:40:54;3.08;;;1.92;;
15913;SDS011;8055;51.930;8.840;2023-08-01T04:43:20;3.88;;;2.13;;
15913;SDS011;8055;51.930;8.840;2023-08-01T04:45:45;3.22;;;2.92;;
15913;SDS011;8055;51.930;8.840;2023-08-01T04:48:11;3.95;;;2.75;;
15913;SDS011;8055;51.930;8.840;2023-08-01T04:50:36;3.03;;;2.72;;
15913;SDS011;8055;51.930;8.840;2023-08-01T04:53:01;2.90;;;2.60;;
15913;SDS011;8055;51.930;8.840;2023-08-01T04:55:27;3.20;;;2.90;;
15913;SDS011;8055;51.930;8.840;2023-08-01T04:57:52;3.40;;;3.10;;
15913;SDS011;8055;51.930;8.840;2023-08-01T05:00:18;5.10;;;2.92;;
15913;SDS011;8055;51.930;8.840;2023-08-01T05:02:43;3.70;;;2.70;;
15913;SDS011;8055;51.930;8.840;2023-08-01T05:05:08;3.10;;;2.65;;
15913;SDS011;8055;51.930;8.840;2023-08-01T05:07:34;2.35;;;2.13;;
15913;SDS011;8055;51.930;8.840;2023-08-01T05:09:59;2.38;;;1.63;;
15913;SDS011;8055;51.930;8.840;2023-08-01T05:12:25;1.73;;;1.63;;
15913;SDS011;8055;51.930;8.840;2023-08-01T05:14:50;1.98;;;1.77;;
15913;SDS011;8055;51.930;8.840;2023-08-01T05:17:15;1.40;;;1.30;;
15913;SDS011;8055;51.930;8.840;2023-08-01T05:19:41;1.40;;;1.30;;
15913;SDS011;8055;51.930;8.840;2023-08-01T05:22:06;2.25;;;1.42;;
15913;SDS011;8055;51.930;8.840;2023-08-01T05:24:31;2.55;;;1.50;;
15913;SDS011;8055;51.930;8.840;2023-08-01T05:26:57;2.63;;;1.30;;
15913;SDS011;8055;51.930;8.840;2023-08-01T05:29:22;3.65;;;1.83;;
15913;SDS011;8055;51.930;8.840;2023-08-01T05:31:47;3.40;;;1.83;;
15913;SDS011;8055;51.930;8.840;2023-08-01T05:34:13;6.78;;;2.47;;
15913;SDS011;8055;51.930;8.840;2023-08-01T05:36:38;3.78;;;2.97;;
15913;SDS011;8055;51.930;8.840;2023-08-01T05:39:04;7.95;;;4.22;;
15913;SDS011;8055;51.930;8.840;2023-08-01T05:41:29;11.00;;;4.05;;
15913;SDS011;8055;51.930;8.840;2023-08-01T05:43:54;10.35;;;5.30;;
15913;SDS011;8055;51.930;8.840;2023-08-01T05:46:20;9.00;;;5.22;;
15913;SDS011;8055;51.930;8.840;2023-08-01T05:48:46;11.20;;;5.32;;
15913;SDS011;8055;51.930;8.840;2023-08-01T05:51:11;9.98;;;5.78;;
15913;SDS011;8055;51.930;8.840;2023-08-01T05:53:37;11.23;;;6.43;;
15913;SDS011;8055;51.930;8.840;2023-08-01T05:56:02;11.25;;;6.07;;
15913;SDS011;8055;51.930;8.840;2023-08-01T05:58:28;17.20;;;7.72;;
15913;SDS011;8055;51.930;8.840;2023-08-01T06:00:53;10.50;;;5.80;;
15913;SDS011;8055;51.930;8.840;2023-08-01T06:03:19;14.82;;;8.23;;
15913;SDS011;8055;51.930;8.840;2023-08-01T06:05:44;13.93;;;8.48;;
15913;SDS011;8055;51.930;8.840;2023-08-01T06:08:09;15.85;;;9.65;;
15913;SDS011;8055;51.930;8.840;2023-08-01T06:10:35;12.70;;;8.90;;
15913;SDS011;8055;51.930;8.840;2023-08-01T06:13:01;13.85;;;9.18;;
15913;SDS011;8055;51.930;8.840;2023-08-01T06:15:26;16.40;;;8.80;;
15913;SDS011;8055;51.930;8.840;2023-08-01T06:17:52;19.33;;;9.00;;
15913;SDS011;8055;51.930;8.840;2023-08-01T06:20:18;12.90;;;8.60;;
15913;SDS011;8055;51.930;8.840;2023-08-01T06:22:43;15.60;;;8.02;;
15913;SDS011;8055;51.930;8.840;2023-08-01T06:25:09;14.98;;;7.97;;
15913;SDS011;8055;51.930;8.840;2023-08-01T06:27:34;16.55;;;7.88;;
15913;SDS011;8055;51.930;8.840;2023-08-01T06:29:59;14.65;;;6.95;;
15913;SDS011;8055;51.930;8.840;2023-08-01T06:32:25;14.32;;;7.38;;
15913;SDS011;8055;51.930;8.840;2023-08-01T06:34:50;13.60;;;7.25;;
15913;SDS011;8055;51.930;8.840;2023-08-01T06:37:16;12.35;;;7.68;;
15913;SDS011;8055;51.930;8.840;2023-08-01T06:39:41;15.00;;;7.68;;
15913;SDS011;8055;51.930;8.840;2023-08-01T06:42:06;16.90;;;7.45;;
15913;SDS011;8055;51.930;8.840;2023-08-01T06:44:32;14.60;;;7.95;;
15913;SDS011;8055;51.930;8.840;2023-08-01T06:46:57;14.18;;;7.35;;
15913;SDS011;8055;51.930;8.840;2023-08-01T06:49:23;15.98;;;7.55;;
15913;SDS011;8055;51.930;8.840;2023-08-01T06:51:48;17.10;;;8.48;;
15913;SDS011;8055;51.930;8.840;2023-08-01T06:54:13;18.35;;;8.40;;
15913;SDS011;8055;51.930;8.840;2023-08-01T06:56:39;17.25;;;8.65;;
15913;SDS011;8055;51.930;8.840;2023-08-01T06:59:04;19.67;;;8.90;;
15913;SDS011;8055;51.930;8.840;2023-08-01T07:01:30;18.58;;;9.20;;
15913;SDS011;8055;51.930;8.840;2023-08-01T07:03:55;16.52;;;8.45;;
15913;SDS011;8055;51.930;8.840;2023-08-01T07:06:22;18.73;;;8.35;;
15913;SDS011;8055;51.930;8.840;2023-08-01T07:08:49;20.17;;;9.63;;
15913;SDS011;8055;51.930;8.840;2023-08-01T07:11:14;15.23;;;8.60;;
15913;SDS011;8055;51.930;8.840;2023-08-01T07:13:39;18.50;;;8.38;;
15913;SDS011;8055;51.930;8.840;2023-08-01T07:16:05;14.27;;;8.48;;
15913;SDS011;8055;51.930;8.840;2023-08-01T07:18:30;16.25;;;8.68;;
15913;SDS011;8055;51.930;8.840;2023-08-01T07:21:04;19.67;;;8.60;;
15913;SDS011;8055;51.930;8.840;2023-08-01T07:23:30;17.67;;;9.50;;
15913;SDS011;8055;51.930;8.840;2023-08-01T07:25:56;17.58;;;9.80;;
15913;SDS011;8055;51.930;8.840;2023-08-01T07:33:30;18.88;;;10.07;;
15913;SDS011;8055;51.930;8.840;2023-08-01T07:35:56;17.73;;;9.68;;
15913;SDS011;8055;51.930;8.840;2023-08-01T07:38:21;20.05;;;9.93;;
15913;SDS011;8055;51.930;8.840;2023-08-01T07:40:47;16.92;;;11.05;;
15913;SDS011;8055;51.930;8.840;2023-08-01T07:43:13;15.93;;;9.98;;
15913;SDS011;8055;51.930;8.840;2023-08-01T07:45:38;13.10;;;8.48;;
15913;SDS011;8055;51.930;8.840;2023-08-01T07:48:03;11.73;;;7.50;;
15913;SDS011;8055;51.930;8.840;2023-08-01T07:50:29;12.93;;;8.02;;
15913;SDS011;8055;51.930;8.840;2023-08-01T07:52:54;12.13;;;6.85;;
15913;SDS011;8055;51.930;8.840;2023-08-01T07:55:20;8.65;;;5.32;;
15913;SDS011;8055;51.930;8.840;2023-08-01T07:57:46;7.05;;;5.05;;
15913;SDS011;8055;51.930;8.840;2023-08-01T08:00:12;9.98;;;5.97;;
15913;SDS011;8055;51.930;8.840;2023-08-01T08:02:38;7.65;;;4.80;;
15913;SDS011;8055;51.930;8.840;2023-08-01T08:05:03;9.93;;;5.85;;
15913;SDS011;8055;51.930;8.840;2023-08-01T08:07:30;10.18;;;6.18;;
15913;SDS011;8055;51.930;8.840;2023-08-01T08:09:55;7.72;;;5.30;;
15913;SDS011;8055;51.930;8.840;2023-08-01T08:12:22;13.25;;;6.95;;
15913;SDS011;8055;51.930;8.840;2023-08-01T08:14:47;10.93;;;6.80;;
15913;SDS011;8055;51.930;8.840;2023-08-01T08:17:13;10.25;;;6.95;;
15913;SDS011;8055;51.930;8.840;2023-08-01T08:19:40;16.02;;;8.10;;
15913;SDS011;8055;51.930;8.840;2023-08-01T08:22:05;12.27;;;7.68;;
15913;SDS011;8055;51.930;8.840;2023-08-01T08:24:31;9.30;;;7.00;;
15913;SDS011;8055;51.930;8.840;2023-08-01T08:26:56;12.15;;;7.70;;
15913;SDS011;8055;51.930;8.840;2023-08-01T08:29:23;10.30;;;7.55;;
15913;SDS011;8055;51.930;8.840;2023-08-01T08:31:48;16.50;;;9.52;;
15913;SDS011;8055;51.930;8.840;2023-08-01T08:34:14;16.20;;;9.55;;
15913;SDS011;8055;51.930;8.840;2023-08-01T08:36:39;12.45;;;9.45;;
15913;SDS011;8055;51.930;8.840;2023-08-01T08:39:04;22.98;;;10.35;;
15913;SDS011;8055;51.930;8.840;2023-08-01T08:41:45;16.38;;;8.85;;
15913;SDS011;8055;51.930;8.840;2023-08-01T08:44:13;16.20;;;8.50;;
15913;SDS011;8055;51.930;8.840;2023-08-01T08:46:42;14.90;;;8.95;;
15913;SDS011;8055;51.930;8.840;2023-08-01T08:49:09;14.18;;;7.78;;
15913;SDS011;8055;51.930;8.840;2023-08-01T08:51:36;17.92;;;9.48;;
15913;SDS011;8055;51.930;8.840;2023-08-01T08:54:03;14.70;;;8.52;;
15913;SDS011;8055;51.930;8.840;2023-08-01T08:56:30;17.42;;;8.73;;
15913;SDS011;8055;51.930;8.840;2023-08-01T08:58:56;17.02;;;7.78;;
15913;SDS011;8055;51.930;8.840;2023-08-01T09:01:22;16.35;;;7.32;;
15913;SDS011;8055;51.930;8.840;2023-08-01T09:03:47;12.02;;;8.60;;
15913;SDS011;8055;51.930;8.840;2023-08-01T09:06:16;15.68;;;10.07;;
15913;SDS011;8055;51.930;8.840;2023-08-01T09:08:50;16.10;;;10.35;;
15913;SDS011;8055;51.930;8.840;2023-08-01T09:11:17;16.63;;;10.15;;
15913;SDS011;8055;51.930;8.840;2023-08-01T09:13:43;13.35;;;8.40;;
15913;SDS011;8055;51.930;8.840;2023-08-01T09:16:09;13.55;;;8.55;;
15913;SDS011;8055;51.930;8.840;2023-08-01T09:18:35;14.93;;;9.10;;
15913;SDS011;8055;51.930;8.840;2023-08-01T09:21:11;13.35;;;9.13;;
15913;SDS011;8055;51.930;8.840;2023-08-01T09:23:37;12.50;;;8.27;;
15913;SDS011;8055;51.930;8.840;2023-08-01T09:26:12;13.73;;;8.32;;
15913;SDS011;8055;51.930;8.840;2023-08-01T09:28:38;9.82;;;7.35;;
15913;SDS011;8055;51.930;8.840;2023-08-01T09:31:03;9.80;;;6.55;;
15913;SDS011;8055;51.930;8.840;2023-08-01T09:33:37;13.00;;;8.13;;
15913;SDS011;8055;51.930;8.840;2023-08-01T09:36:09;14.23;;;10.27;;
15913;SDS011;8055;51.930;8.840;2023-08-01T09:38:35;15.55;;;10.85;;
15913;SDS011;8055;51.930;8.840;2023-08-01T09:41:02;19.13;;;12.13;;
15913;SDS011;8055;51.930;8.840;2023-08-01T09:43:35;19.00;;;14.00;;
15913;SDS011;8055;51.930;8.840;2023-08-01T09:46:01;21.45;;;14.77;;
15913;SDS011;8055;51.930;8.840;2023-08-01T09:48:27;20.33;;;14.73;;
15913;SDS011;8055;51.930;8.840;2023-08-01T09:51:10;21.75;;;15.27;;
15913;SDS011;8055;51.930;8.840;2023-08-01T09:56:25;24.55;;;16.52;;
15913;SDS011;8055;51.930;8.840;2023-08-01T09:58:52;20.10;;;16.30;;
15913;SDS011;8055;51.930;8.840;2023-08-01T10:01:20;21.35;;;16.88;;
15913;SDS011;8055;51.930;8.840;2023-08-01T10:03:51;27.20;;;16.55;;
15913;SDS011;8055;51.930;8.840;2023-08-01T10:06:18;20.75;;;13.95;;
15913;SDS011;8055;51.930;8.840;2023-08-01T10:08:48;16.00;;;11.40;;
15913;SDS011;8055;51.930;8.840;2023-08-01T10:11:16;14.60;;;9.85;;
15913;SDS011;8055;51.930;8.840;2023-08-01T10:13:43;16.17;;;12.20;;
15913;SDS011;8055;51.930;8.840;2023-08-01T10:16:12;16.90;;;13.23;;
15913;SDS011;8055;51.930;8.840;2023-08-01T10:18:38;19.63;;;13.52;;
15913;SDS011;8055;51.930;8.840;2023-08-01T10:21:05;16.08;;;12.63;;
15913;SDS011;8055;51.930;8.840;2023-08-01T10:23:32;17.77;;;13.50;;
15913;SDS011;8055;51.930;8.840;2023-08-01T10:25:58;14.73;;;12.60;;
15913;SDS011;8055;51.930;8.840;2023-08-01T10:28:32;20.00;;;13.32;;
15913;SDS011;8055;51.930;8.840;2023-08-01T10:31:08;17.13;;;13.82;;
15913;SDS011;8055;51.930;8.840;2023-08-01T10:33:36;22.25;;;12.77;;
15913;SDS011;8055;51.930;8.840;2023-08-01T10:36:11;15.45;;;11.25;;
15913;SDS011;8055;51.930;8.840;2023-08-01T10:38:44;15.88;;;11.40;;
15913;SDS011;8055;51.930;8.840;2023-08-01T10:41:20;16.30;;;11.00;;
15913;SDS011;8055;51.930;8.840;2023-08-01T10:43:46;12.05;;;9.57;;
15913;SDS011;8055;51.930;8.840;2023-08-01T10:46:11;14.23;;;9.68;;
15913;SDS011;8055;51.930;8.840;2023-08-01T10:48:50;12.68;;;8.10;;
15913;SDS011;8055;51.930;8.840;2023-08-01T10:51:18;10.55;;;8.60;;
15913;SDS011;8055;51.930;8.840;2023-08-01T10:53:44;12.85;;;9.02;;
15913;SDS011;8055;51.930;8.840;2023-08-01T10:56:17;11.73;;;7.80;;
15913;SDS011;8055;51.930;8.840;2023-08-01T10:58:44;13.48;;;8.63;;
15913;SDS011;8055;51.930;8.840;2023-08-01T11:01:10;9.48;;;7.50;;
15913;SDS011;8055;51.930;8.840;2023-08-01T11:03:35;13.77;;;7.57;;
15913;SDS011;8055;51.930;8.840;2023-08-01T11:06:01;10.18;;;7.35;;
15913;SDS011;8055;51.930;8.840;2023-08-01T11:08:38;13.02;;;7.78;;
15913;SDS011;8055;51.930;8.840;2023-08-01T11:11:05;11.82;;;6.93;;
15913;SDS011;8055;51.930;8.840;2023-08-01T11:13:32;14.82;;;7.45;;
15913;SDS011;8055;51.930;8.840;2023-08-01T11:16:00;8.82;;;7.10;;
15913;SDS011;8055;51.930;8.840;2023-08-01T11:18:27;11.50;;;5.68;;
15913;SDS011;8055;51.930;8.840;2023-08-01T11:20:52;10.48;;;5.95;;
15913;SDS011;8055;51.930;8.840;2023-08-01T11:23:18;8.43;;;4.93;;
15913;SDS011;8055;51.930;8.840;2023-08-01T11:25:43;7.00;;;5.40;;
15913;SDS011;8055;51.930;8.840;2023-08-01T11:28:11;10.38;;;5.40;;
15913;SDS011;8055;51.930;8.840;2023-08-01T11:30:38;9.02;;;5.22;;
15913;SDS011;8055;51.930;8.840;2023-08-01T11:33:20;9.30;;;5.75;;
15913;SDS011;8055;51.930;8.840;2023-08-01T11:35:53;9.35;;;5.88;;
15913;SDS011;8055;51.930;8.840;2023-08-01T11:38:25;10.10;;;6.72;;
15913;SDS011;8055;51.930;8.840;2023-08-01T11:40:51;7.47;;;4.10;;
15913;SDS011;8055;51.930;8.840;2023-08-01T11:43:17;6.75;;;4.35;;
15913;SDS011;8055;51.930;8.840;2023-08-01T11:45:52;7.30;;;5.13;;
15913;SDS011;8055;51.930;8.840;2023-08-01T11:48:23;6.20;;;4.32;;
15913;SDS011;8055;51.930;8.840;2023-08-01T11:50:49;8.85;;;4.85;;
15913;SDS011;8055;51.930;8.840;2023-08-01T11:53:19;9.75;;;5.43;;
15913;SDS011;8055;51.930;8.840;2023-08-01T11:55:45;9.45;;;5.13;;
15913;SDS011;8055;51.930;8.840;2023-08-01T11:58:11;7.35;;;5.55;;
15913;SDS011;8055;51.930;8.840;2023-08-01T12:00:36;9.38;;;5.43;;
15913;SDS011;8055;51.930;8.840;2023-08-01T12:03:08;9.00;;;5.45;;
15913;SDS011;8055;51.930;8.840;2023-08-01T12:05:40;8.10;;;6.18;;
15913;SDS011;8055;51.930;8.840;2023-08-01T12:08:13;11.07;;;5.75;;
15913;SDS011;8055;51.930;8.840;2023-08-01T12:10:45;10.02;;;6.57;;
15913;SDS011;8055;51.930;8.840;2023-08-01T12:13:24;10.50;;;6.30;;
15913;SDS011;8055;51.930;8.840;2023-08-01T12:15:51;11.13;;;6.03;;
15913;SDS011;8055;51.930;8.840;2023-08-01T12:18:21;9.20;;;6.30;;
15913;SDS011;8055;51.930;8.840;2023-08-01T12:20:50;9.10;;;6.97;;
15913;SDS011;8055;51.930;8.840;2023-08-01T12:23:16;9.25;;;6.63;;
15913;SDS011;8055;51.930;8.840;2023-08-01T12:25:41;13.75;;;7.50;;
15913;SDS011;8055;51.930;8.840;2023-08-01T12:28:07;11.98;;;6.90;;
15913;SDS011;8055;51.930;8.840;2023-08-01T12:30:32;7.47;;;6.05;;
15913;SDS011;8055;51.930;8.840;2023-08-01T12:32:58;8.65;;;6.15;;
15913;SDS011;8055;51.930;8.840;2023-08-01T12:35:23;12.10;;;6.03;;
15913;SDS011;8055;51.930;8.840;2023-08-01T12:37:49;11.32;;;5.57;;
15913;SDS011;8055;51.930;8.840;2023-08-01T12:40:15;7.10;;;5.13;;
15913;SDS011;8055;51.930;8.840;2023-08-01T12:42:40;9.27;;;5.50;;
15913;SDS011;8055;51.930;8.840;2023-08-01T12:45:06;9.38;;;5.57;;
15913;SDS011;8055;51.930;8.840;2023-08-01T12:47:32;9.25;;;5.18;;
15913;SDS011;8055;51.930;8.840;2023-08-01T12:49:57;9.55;;;5.45;;
15913;SDS011;8055;51.930;8.840;2023-08-01T12:52:23;9.10;;;5.43;;
15913;SDS011;8055;51.930;8.840;2023-08-01T12:54:50;10.82;;;5.55;;
15913;SDS011;8055;51.930;8.840;2023-08-01T12:57:15;10.50;;;5.18;;
15913;SDS011;8055;51.930;8.840;2023-08-01T12:59:40;12.73;;;4.97;;
15913;SDS011;8055;51.930;8.840;2023-08-01T13:02:06;7.53;;;4.57;;
15913;SDS011;8055;51.930;8.840;2023-08-01T13:04:33;9.43;;;4.70;;
15913;SDS011;8055;51.930;8.840;2023-08-01T13:06:59;7.22;;;4.38;;
15913;SDS011;8055;51.930;8.840;2023-08-01T13:09:24;8.73;;;4.30;;
15913;SDS011;8055;51.930;8.840;2023-08-01T13:11:50;6.40;;;4.22;;
15913;SDS011;8055;51.930;8.840;2023-08-01T13:14:15;5.80;;;3.97;;
15913;SDS011;8055;51.930;8.840;2023-08-01T13:16:40;7.85;;;4.30;;
15913;SDS011;8055;51.930;8.840;2023-08-01T13:19:06;8.07;;;4.47;;
15913;SDS011;8055;51.930;8.840;2023-08-01T13:21:32;6.13;;;4.03;;
15913;SDS011;8055;51.930;8.840;2023-08-01T13:23:59;8.18;;;4.53;;
15913;SDS011;8055;51.930;8.840;2023-08-01T13:26:29;6.10;;;4.18;;
15913;SDS011;8055;51.930;8.840;2023-08-01T13:31:22;12.23;;;4.75;;
15913;SDS011;8055;51.930;8.840;2023-08-01T13:33:47;4.65;;;3.83;;
15913;SDS011;8055;51.930;8.840;2023-08-01T13:36:13;6.22;;;3.72;;
15913;SDS011;8055;51.930;8.840;2023-08-01T13:38:38;5.85;;;3.05;;
15913;SDS011;8055;51.930;8.840;2023-08-01T13:41:04;6.45;;;3.30;;
15913;SDS011;8055;51.930;8.840;2023-08-01T13:43:29;4.25;;;2.83;;
15913;SDS011;8055;51.930;8.840;2023-08-01T13:45:55;3.67;;;2.40;;
15913;SDS011;8055;51.930;8.840;2023-08-01T13:48:20;4.75;;;2.63;;
15913;SDS011;8055;51.930;8.840;2023-08-01T13:50:46;8.65;;;3.05;;
15913;SDS011;8055;51.930;8.840;2023-08-01T13:53:11;5.68;;;2.58;;
15913;SDS011;8055;51.930;8.840;2023-08-01T13:55:39;6.60;;;2.47;;
15913;SDS011;8055;51.930;8.840;2023-08-01T13:58:05;5.72;;;3.03;;
15913;SDS011;8055;51.930;8.840;2023-08-01T14:00:31;3.65;;;2.35;;
15913;SDS011;8055;51.930;8.840;2023-08-01T14:02:57;5.78;;;2.65;;
15913;SDS011;8055;51.930;8.840;2023-08-01T14:05:25;5.32;;;2.50;;
15913;SDS011;8055;51.930;8.840;2023-08-01T14:07:51;4.75;;;2.78;;
15913;SDS011;8055;51.930;8.840;2023-08-01T14:10:17;7.75;;;2.70;;
15913;SDS011;8055;51.930;8.840;2023-08-01T14:12:42;7.30;;;2.47;;
15913;SDS011;8055;51.930;8.840;2023-08-01T14:15:08;5.78;;;2.30;;
15913;SDS011;8055;51.930;8.840;2023-08-01T14:17:34;4.53;;;2.20;;
15913;SDS011;8055;51.930;8.840;2023-08-01T14:19:59;6.20;;;2.58;;
15913;SDS011;8055;51.930;8.840;2023-08-01T14:22:25;4.90;;;2.15;;
15913;SDS011;8055;51.930;8.840;2023-08-01T14:24:50;7.53;;;2.40;;
15913;SDS011;8055;51.930;8.840;2023-08-01T14:27:15;4.30;;;2.13;;
15913;SDS011;8055;51.930;8.840;2023-08-01T14:29:41;6.50;;;2.60;;
15913;SDS011;8055;51.930;8.840;2023-08-01T14:32:06;7.75;;;2.80;;
15913;SDS011;8055;51.930;8.840;2023-08-01T14:34:32;9.85;;;3.15;;
15913;SDS011;8055;51.930;8.840;2023-08-01T14:36:57;7.55;;;2.72;;
15913;SDS011;8055;51.930;8.840;2023-08-01T14:39:23;6.03;;;2.58;;
15913;SDS011;8055;51.930;8.840;2023-08-01T14:41:49;6.57;;;2.70;;
15913;SDS011;8055;51.930;8.840;2023-08-01T14:44:14;6.35;;;3.10;;
15913;SDS011;8055;51.930;8.840;2023-08-01T14:46:40;7.68;;;3.15;;
15913;SDS011;8055;51.930;8.840;2023-08-01T14:49:05;4.63;;;2.90;;
15913;SDS011;8055;51.930;8.840;2023-08-01T14:51:30;6.30;;;2.60;;
15913;SDS011;8055;51.930;8.840;2023-08-01T14:53:56;4.53;;;2.45;;
15913;SDS011;8055;51.930;8.840;2023-08-01T14:56:21;6.80;;;2.80;;
15913;SDS011;8055;51.930;8.840;2023-08-01T14:58:47;7.13;;;2.55;;
15913;SDS011;8055;51.930;8.840;2023-08-01T15:01:13;5.72;;;3.03;;